METARS
Date METAR Location Area
31/08/2014 LGY7 310530Z 00006KT 25/15 Q1012 Aegina Attica
31/08/2014 LGH5 310530Z 02301KT 24/16 Q1012 Ampelokipoi Attica
31/08/2014 LGS5 310530Z 33802KT 23/16 Q1008 Anavissos Attica
31/08/2014 LGO0 310530Z 29306KT 24/16 Q1012 Ano Liosia Attica
31/08/2014 LGB9 310530Z 33802KT 25/16 Q1014 Athens - Gazi Attica
31/08/2014 LGL5 310530Z 02306KT 21/16 Q1012 Ekali Attica
30/08/2014 LGS3 300530Z 04502KT 25/14 Q1014 Faliro Attica
31/08/2014 LGM3 310530Z 29302KT 25/16 Q1014 Hydra Attica
28/08/2014 LGI4 281800Z 00000KT 287/219 Q10094 Hydra Attica
31/08/2014 LGO2 310430Z 31506KT 16/13 Q1012 Imittos Attica
31/08/2014 LGT8 310530Z 24802KT 20/15 Q1013 Ippokratios Attica
26/08/2014 LG99 260930Z 31503KT 32/19 Q1014 Kantza Attica
30/08/2014 LG13 302145Z 00000KT 20/12 Q1015 Kifissia Attica
31/08/2014 LGD6 310530Z 33809KT 25/18 Q1011 Lavrio Attica
31/08/2014 LGK0 310530Z 02303KT 23/16 Q1013 Marousi Attica
31/08/2014 LG00 310140Z 33002KT 20/12 Q1012 Marousi (Anavrita) Attica
29/08/2014 LGR0 291630Z 02304KT 28/15 Q1014 Nea Smirni Attica
31/08/2014 LGM8 310430Z 31501KT 23/15 Q1014 Neos Kosmos Attica
31/08/2014 LGA3 310610Z 33006KT 23/15 Q1013 Pallini - Kantza 2 Attica
31/08/2014 LGK3 310530Z 00028G39KT 13/13 Q1013 Parnitha 1230 EAA Attica
31/08/2014 LGT6 310530Z 09001KT 24/15 Q1013 Patissia Attica
31/08/2014 LG67 310600Z 0453456G10422KT 220/160 Q10130 Penteli Attica
31/08/2014 LGX9 310530Z 33806KT 20/15 Q1010 Penteli Attica
31/08/2014 LGU0 310330Z 33800KT 23/14 Q1013 Peristeri Attica
31/08/2014 LGY6 310530Z 33807KT 25/17 Q1013 Porto Rafti Attica
31/08/2014 LG96 310530Z 18001KT 23/16 Q1013 Psychico Attica
31/08/2014 LGZ0 310530Z 33808KT 24/16 Q1012 Rafina Attica
31/08/2014 LGG2 310530Z 02303KT 24/16 Q1012 Spata Attica
30/08/2014 LGS6 301130Z 09003KT 30/18 Q1013 Spetses Attica
31/08/2014 LGZ2 310530Z 00003KT 25/16 Q1013 Vari Attica
06/08/2014 LGR6 061330Z 22511KT 26/17 Q1004 Vilia Attica
28/08/2014 LG74 280100Z 00000KT 259/186 Q10065 Ymittos Attica
31/08/2014 LGG1 310600Z 0457830G15660KT 237/160 Q279 Kalivia Thorikou Attica E
31/08/2014 LG45 310530Z 02306KT 24/18 Q1015 Markopoulo Attica E
28/08/2014 LG72 280510Z 00000KT 248/165 Q10054 Keratea Attica SE
15/08/2014 LGW4 151530Z 13504KT 31/13 Q1007 Ag. Ioannis Sfakion Crete
31/08/2014 LGJ9 310330Z 00005KT 24/18 Q1011 Aghios Nikolaos Crete
31/08/2014 LGT4 310530Z 18000KT 21/15 Q1013 Alikianos Crete
31/08/2014 LGB6 310530Z 27009KT 18/15 Q1009 Anogeia Crete
18/08/2014 LGZ6 180730Z 00010KT 22/14 Q1010 Askyfou Crete
31/08/2014 LG25 310530Z 20302KT 24/18 Q1012 Chania Crete
31/08/2014 LGN3 310530Z 20301KT 22/16 Q1013 Chania Center Crete
31/08/2014 LG61 310530Z 31512KT 25/20 Q1011 Cost - Irakleio Crete
31/08/2014 LGL9 310530Z 27002KT 25/18 Q1011 Falasarna Crete
31/08/2014 LGL1 310530Z 29315G30KT 21/16 Q1010 Fourfouras Crete
30/08/2014 LGD4 300730Z 33807KT 26/15 Q1012 Fragmapotamon - Rethymno Crete
31/08/2014 LG30 310530Z 31505KT 24/19 Q1012 Heraklion - Knossos Crete
07/08/2014 LG95 070330Z 04503KT 25/21 Q1005 Ierapetra Crete
31/08/2014 LGP0 310530Z 02313KT 26/16 Q1010 Lentas Hrakleion Crete
31/08/2014 LGD7 310530Z 27004KT 22/17 Q1011 Metaxochori - Heraklion Crete
31/08/2014 LGI2 310530Z 09000KT 22/16 Q1011 Mires Crete
31/08/2014 LG36 310530Z 09003G16KT 27/13 Q1010 Paleochora Crete
28/08/2014 LG8A 280250Z 2701728G2592KT 227/132 Q10011 Pirathi Heraklion Crete
31/08/2014 LG58 310530Z 31508KT 25/20 Q1011 Rethymno Crete
31/08/2014 LGT2 310530Z 00016G29KT 25/17 Q1009 Rethymno - Plakia Crete
31/08/2014 LGY1 310530Z 13502KT 25/04 Q1011 Samaria Crete
31/08/2014 LGB4 310530Z 29303KT 17/07 Q1011 Samaria Crete
31/08/2014 LGM2 310530Z 29308KT 26/20 Q1010 Sitia Crete
31/08/2014 LG75 310530Z 04507KT 21/17 Q1013 Spili - Rethymnon Crete
31/08/2014 LG50 310530Z 00002KT 18/15 Q1011 Tzermiado Lasithi Crete
30/08/2014 LG70 300830Z 29303KT 29/17 Q1013 Vrysses Crete
31/08/2014 LGT5 310530Z 20305G16KT 24/20 Q1010 Amorgos Cyclades
31/08/2014 LGN6 310530Z 04511KT 24/18 Q1012 Andros Cyclades
31/08/2014 LGS7 310530Z 00019KT 24/20 Q1010 Donoussa Cyclades
31/08/2014 LGI0 310530Z 33813KT 24/20 Q1011 Ios Cyclades
31/08/2014 LGP2 310530Z 00010KT 21/14 Q1014 Ioulida - Kea Cyclades
31/08/2014 LGP5 310530Z 31506KT 24/20 Q1010 Iraklia Cyclades
29/08/2014 LGE3 290430Z 00006G18KT 25/21 Q1012 Kea Cyclades
31/08/2014 LGX8 310530Z 00010KT 25/19 Q1010 Koufonissia Cyclades
31/08/2014 LGS0 310530Z 00007KT 24/19 Q1013 Milos Cyclades
31/08/2014 LG66 310530Z 00020KT 24/20 Q1011 Mykonos Cyclades
31/08/2014 LGM0 310530Z 00020KT 23/20 Q1011 Naxos Cyclades
31/08/2014 LGV3 310530Z 00000KT 17/16 Q1012 Naxos - Apiranthos Cyclades
30/08/2014 LGT0 301230Z 31509KT 23/19 Q1013 Naxos - Apollonas Cyclades
31/08/2014 LGU1 310530Z 29303KT 22/18 Q1011 Naxos - Damarionas Cyclades
30/08/2014 LGU2 300830Z 31512G23KT 20/16 Q1013 Naxos - Koronos Cyclades
12/08/2014 LGN7 120730Z 27004KT 25/10 Q1013 Naxos - Kynidaros Cyclades
31/08/2014 LGW1 310530Z 31507KT 22/19 Q1011 Naxos - Melanes Cyclades
30/08/2014 LGO7 301430Z 00026KT 25/19 Q1011 Naxos - Mikri Vigla Cyclades
31/08/2014 LG02 310530Z 00017KT 24/20 Q1012 Paros Cyclades
29/08/2014 LGX5 291230Z 00010KT 29/21 Q1008 Santorini Cyclades
31/08/2014 LGX7 310530Z 06803KT 25/18 Q1010 Schinoussa Cyclades
07/07/2014 LG07 070630Z 00000KT 255/97 Q10099 Tinos Cyclades
30/08/2014 LGB8 301230Z 00016G30KT 25/18 Q1012 Tinos NOA Cyclades
31/08/2014 LGAB 310530Z 24808KT 23/20 Q1007 Emponas - Rhodes Dodecanese
31/08/2014 LGG6 310530Z 27005KT 26/20 Q1009 Kalymnos Dodecanese
31/08/2014 LGAC 310530Z 31510KT 25/22 Q1007 Kattavia - Rhodes Dodecanese
31/08/2014 LGAA 310530Z 33805KT 27/19 Q1008 Lindos - Rhodes Dodecanese
31/08/2014 LG65 310530Z 29310KT 25/21 Q1010 Patmos Dodecanese
31/08/2014 LGS9 310530Z 24807KT 26/22 Q1009 Rhodes Dodecanese
31/08/2014 LGM5 310530Z 29312KT 25/22 Q1009 Kasos Dodecanisa
31/08/2014 LGX1 310530Z 27006KT 26/21 Q1009 Kos Dodekanissa
31/08/2014 LG4A 310530Z 00006KT 25/19 Q1009 Chios East Aegean
31/08/2014 LGT1 310530Z 31510KT 25/21 Q1008 Fournoi East Aegean
31/08/2014 LGI9 310530Z 00000KT 20/20 Q1010 Ikaria East Aegean
31/08/2014 LGI5 310530Z 00014KT 23/18 Q1012 Lemnos East Aegean
31/08/2014 LGI6 310530Z 00002KT 22/18 Q1010 Lesvos East Aegean
30/08/2014 LGJ3 302230Z 04510KT 25/20 Q1014 Lesvos - Thermi East Aegean
31/08/2014 LGZ7 310530Z 33803KT 23/19 Q1010 Mantamados East Aegean
31/08/2014 LGY5 310530Z 02303KT 21/18 Q1012 Molyvos East Aegean
31/08/2014 LGF1 310530Z 27001KT 24/21 Q1009 Samos East Aegean
31/08/2014 LGW7 310530Z 00025KT 23/16 Q1007 Akrotirio Paksimada Evia
31/08/2014 LGO3 310530Z 02303KT 23/16 Q1011 Chalkida Evia
31/08/2014 LGR5 310430Z 31530G41KT 20/17 Q1011 Kavodoro Evia
09/08/2014 LGY0 090700Z 11300KT 09/05 Q1034 Krieza Evia
31/08/2014 LGX0 310530Z 00006KT 22/16 Q1015 Kymi Evia
25/08/2014 LGT7 251000Z 27004KT 09/07 Q1011 Setta Evia
31/08/2014 LG81 310530Z 04504KT 21/15 Q1012 Steni Evia
31/08/2014 LGC4 310530Z 04513KT 25/18 Q1013 Styra Evia
31/08/2014 LGD3 310530Z 00007KT 23/17 Q1014 Zarakes Evia
31/08/2014 LGP6 310530Z 09000KT 16/15 Q1015 Agia Kyriaki Ioanninon Hepirus
28/08/2014 LGO1 282330Z 31500KT 23/15 Q1013 Aridaia Hepirus
31/08/2014 LGD2 310530Z 29300KT 20/17 Q1013 Arta - Kompoti Hepirus
29/08/2014 LG38 292230Z 00001KT 27/18 Q1014 Arta - Vlacherna Hepirus
30/08/2014 LGE4 301230Z 15804KT 21/17 Q1012 Aspraggeloi Hepirus
31/08/2014 LGI3 310530Z 04502KT 17/16 Q1013 Derviziana Hepirus
31/08/2014 LGP4 310530Z 04500KT 17/13 Q1013 Dodoni Hepirus
02/08/2014 LGL8 021430Z 02304KT 24/07 Q1015 Grammos Hepirus
31/08/2014 LG43 310530Z 06805KT 21/17 Q1012 Igoumenitsa Hepirus
31/08/2014 LG49 310530Z 00000KT 15/15 Q1013 Ioannina Anatoli Hepirus
31/08/2014 LGK1 310530Z 06803KT 24/17 Q1013 Kanali, Preveza Hepirus
31/08/2014 LGE0 310530Z 00000KT 18/13 Q1013 Katarraktis - Arta Hepirus
28/08/2014 LGO5 281030Z 11302KT 29/11 Q1008 Kerasovo Konitsa Hepirus
31/08/2014 LG3A 310530Z 24801KT 16/15 Q1014 Konitsa Hepirus
29/08/2014 LGO8 291930Z 02300KT +RA 16/14 Q1015 Metsovo Hepirus
31/08/2014 LGK6 310530Z 00000KT 15/13 Q1014 Papigo Hepirus
30/08/2014 LGF6 300830Z 04503KT 26/16 Q1014 Paramythia Hepirus
31/08/2014 LGK9 310530Z 09001KT 23/20 Q1014 Parga Hepirus
31/08/2014 LGK7 310430Z 00000KT 17/13 Q1013 Pesta Hepirus
29/08/2014 LGY9 291930Z 00000KT 18/15 Q 999 Plikati Ioanninon Hepirus
31/08/2014 LGP1 310530Z 00000KT 18/13 Q1014 Pramanta Hepirus
31/08/2014 LGK2 310430Z 00000KT 13/12 Q1019 Theodoriana, Arta Hepirus
24/08/2014 LGD0 241330Z 24802KT 29/14 Q1010 Tristeno - Ioannina Hepirus
29/08/2014 LGM4 291930Z 00000KT 24/18 Q1013 Tyria Hepirus
31/08/2014 LGR8 310530Z 33801KT 16/14 Q1013 Vourgareli Artas Hepirus
31/08/2014 LGN9 310430Z 00000KT -RA 08/07 Q1016 Vovoussa Hepirus
30/08/2014 LGN0 301330Z 24800KT 25/17 Q1011 Zitsa Hepirus
31/08/2014 LGJ2 310530Z 00000KT 23/21 Q1014 Corfu - Gouvia Ionio
31/08/2014 LGB0 310530Z 33800KT 25/20 Q1013 Ithaki Ionio
31/08/2014 LGI7 310530Z 00000KT 23/21 Q1015 Lefkada Ionio
31/08/2014 LGN1 310530Z 00000KT 23/21 Q1012 Paxoi Ionio
31/08/2014 LGN4 310530Z 00000KT 25/22 Q1012 Zakynthos Ionio
31/08/2014 LGG9 310530Z 00000KT 19/16 Q1012 Amynteo Macedonia
31/08/2014 LG33 310530Z 09001KT 20/14 Q1013 Chalkidiki - Polygyros Macedonia
29/08/2014 LGJ1 291330Z 15800KT 27/19 Q1017 Chalkidiki - Stratoni Macedonia
30/08/2014 LGZ5 301830Z 02304KT 21/15 Q1016 Didymoteicho Macedonia
29/08/2014 LG55 290730Z 29300KT 22/20 Q1017 Dion Macedonia
31/08/2014 LGU8 310530Z 24800KT 18/12 Q1015 Doxato - Drama Macedonia
31/08/2014 LGH3 310550Z 07300KT 20/14 Q1015 Drama Macedonia
31/08/2014 LGH6 310530Z 00000KT 19/13 Q1014 Drama 2 Macedonia
26/08/2014 LGY3 260930Z 11304KT 28/18 Q1015 Eleutheroupoli Macedonia
27/08/2014 LGJ6 272050Z 15916G27KT 02/02 Q1009 Falakro Macedonia
22/08/2014 LG63 221230Z 00006KT -RA 23/20 Q1006 Florina Macedonia
31/08/2014 LGZ8 310530Z 02301KT 18/12 Q1015 Fotolivos Macedonia
31/08/2014 LG73 310530Z 00000KT 22/19 Q1013 Giannitsa Macedonia
31/08/2014 LGF2 310530Z 13500KT 14/13 Q1014 Grevena Macedonia
31/08/2014 LGO4 310530Z 09001KT 19/13 Q1015 Hmathia - Rizomata Macedonia
31/08/2014 LG93 310530Z 04503KT 12/10 Q1015 Kaimaktsalan Macedonia
27/08/2014 LGN8 272050Z 19217G43KT 32/29 Q979 Kartakla - Falakro Macedonia
31/08/2014 LGO9 310530Z 06804KT 24/19 Q1014 Kassandreia (Xalkidiki) Macedonia
31/08/2014 LG27 310550Z 24800KT 22/14 Q1015 Kavala - Dexameni Macedonia
05/08/2014 LGA2 052147Z 00000KT 01/00 Q1022 Kavala - Eleftheroupoli Macedonia
31/08/2014 LG42 310530Z 06803KT 20/16 Q1013 Kilkis Macedonia
31/08/2014 LGW8 310530Z 06801KT 19/15 Q1016 Kimisi Macedonia
31/08/2014 LGJ4 310530Z 00000KT 18/16 Q1017 Kozani - Ardassa Macedonia
31/08/2014 LGP3 310530Z 00000KT 12/11 Q1014 Lailias - Serres Macedonia
31/08/2014 LGZ9 310530Z 13501KT 19/16 Q1014 Mavropigi Macedonia
31/08/2014 LG40 310530Z 24800KT 21/16 Q1015 Naousa Macedonia
31/08/2014 LGZ4 310530Z 13501KT 24/17 Q1014 Neos Marmaras Macedonia
31/08/2014 LG48 310530Z 02301KT 13/10 Q 0 Nevrokopi Drama Macedonia
31/08/2014 LGS4 310530Z 00000KT 19/15 Q1012 Notio Pedio - Eordea Macedonia
31/08/2014 LGW0 310530Z 24802KT 13/12 Q1017 Paranesti Macedonia
31/08/2014 LG26 310530Z 00000KT 17/15 Q1012 Ptolemaida Macedonia
31/08/2014 LG87 310530Z 27002KT 15/13 Q1014 Seli Ski Center Macedonia
31/08/2014 LGW6 310530Z 09001KT 19/14 Q1016 Serres Macedonia
31/08/2014 LGD9 310530Z 20300KT 22/17 Q1015 Serres - Kerkini Macedonia
31/08/2014 LG14 310600Z 00000KT 204/94 Q10175 Serres - Proti Macedonia
07/08/2014 LGY8 071419Z 31505KT 9999 SCT036 10/00 Q1010 Thassos Macedonia
31/08/2014 LGR9 310530Z 09000KT 24/17 Q1014 Thessaloniki Macedonia
31/08/2014 LGF0 310530Z 00000KT 15/15 Q1014 Variko Macedonia
31/08/2014 LG82 310530Z 24800KT 14/12 Q1014 Vassilitsa Macedonia
31/08/2014 LGC2 310530Z 11303KT 24/15 Q1013 Vatopedi - Athos Macedonia
31/08/2014 LGE9 310530Z 29300KT 20/17 Q1015 Vegoritida Macedonia
31/08/2014 LGE5 310530Z 09000KT 21/18 Q1012 Veroia Macedonia
31/08/2014 LG98 310530Z 00000KT 14/13 Q1014 Vlasti - Kozani Macedonia
31/08/2014 LGF5 310601Z 29800KT 18/11 Q1014 Vounochori - Kavala Macedonia
31/08/2014 LGU5 310530Z 24801KT 26/14 Q1012 Agioi Theodoroi Peloponissos
31/08/2014 LGU7 310530Z 00000KT 17/15 Q1012 Alagonia - Messinia Peloponissos
31/08/2014 LG52 310530Z 00000KT 24/22 Q1012 Amaliada Peloponissos
30/08/2014 LG77 302030Z 00000KT 20/19 Q1012 Andritsaina Peloponissos
31/08/2014 LGU6 310530Z 00000KT 21/19 Q1013 Arfara - Messinia Peloponissos
31/08/2014 LGT3 310530Z 31503KT 25/13 Q1014 Argos Peloponissos
17/08/2014 LGA8 172100Z 00000KT 00/00 Q 0 Chalandritsa Peloponissos
30/08/2014 LGV0 301630Z 11300KT 21/19 Q1013 Derveni Peloponissos
28/08/2014 LGK4 280630Z 15801KT -RA 03/02 Q1021 Elati Peloponissos
31/08/2014 LGC3 310530Z 00000KT 21/17 Q1011 Foloi - Ilia Peloponissos
31/08/2014 LGX6 310530Z 13502KT 22/18 Q1013 Geraki Peloponissos
13/08/2014 LGB7 130230Z 00000KT 22/17 Q1011 Ilia - Vartholomio Peloponissos
31/08/2014 LG85 310530Z 15803KT 25/16 Q1014 Isthmos Peloponissos
31/08/2014 LG6A 310330Z 00003KT 24/20 Q1013 Kalamata Peloponissos
31/08/2014 LGV7 310530Z 15800KT 13/12 Q1013 Kalavryta Peloponissos
31/08/2014 LGZ3 310530Z 06801KT 24/22 Q1011 Kardamyli Peloponissos
31/08/2014 LGJ5 310530Z 04503KT 23/21 Q1013 Katakolo Peloponissos
31/08/2014 LGP7 310530Z 11300KT 16/13 Q1013 Kato Vlassia Peloponissos
27/08/2014 LGB2 272000Z 20301KT 27/23 Q1011 Katoachaia Peloponissos
27/08/2014 LGB5 271730Z 29302KT 25/22 Q1008 Kavomalias Peloponissos
31/08/2014 LGM7 310530Z 02303KT 26/14 Q1012 Kranidi Peloponissos
31/08/2014 LGV1 310530Z 00000KT 24/22 Q1013 Kyparissia Peloponissos
31/08/2014 LGW9 310530Z 02300KT 18/15 Q1012 Lagadia Peloponissos
28/08/2014 LG92 280930Z 31503KT 30/18 Q1007 Lappa-Larissos-Achaia Peloponissos
07/08/2014 LG91 070630Z 00000KT 21/15 Q1012 Lousika-Olenias-Achaia Peloponissos
31/08/2014 LGV4 310530Z 29306KT 19/17 Q1011 Lykochia Peloponissos
31/08/2014 LGG5 310530Z 31501KT 18/18 Q1013 Megalopoli Peloponissos
07/08/2014 LGV2 070230Z 29303KT 21/19 Q1004 Messinia - Kopanaki Peloponissos
31/08/2014 LGF8 310530Z 22502KT 24/18 Q1012 Molaoi Peloponissos
31/08/2014 LG56 310530Z 02307KT 26/19 Q1013 Monemvasia Peloponissos
31/08/2014 LGE1 310530Z 00000KT 18/14 Q1013 Nemea Peloponissos
31/08/2014 LGD5 310530Z 00000KT 20/17 Q1012 Oleni - Ilia Peloponissos
31/08/2014 LGB3 310530Z 11302KT 22/19 Q1013 Olympia Peloponissos
31/08/2014 LGV6 310530Z 04503KT 17/09 Q1013 Panachaiko Oros Peloponissos
31/08/2014 LGZ1 310530Z 06803KT 23/17 Q1012 Patra Peloponissos
31/08/2014 LG79 310000Z 00000G31104KT 241/185 Q10137 Patra - Agia Peloponissos
31/08/2014 LG71 310600Z 00000KT 266/184 Q10124 Patra - Drosia Peloponissos
31/08/2014 LG84 310530Z 04504KT 24/20 Q1013 Patra - Port Peloponissos
31/08/2014 LG59 310530Z 09002KT 23/20 Q1012 Pirgos Peloponissos
31/08/2014 LGH8 310530Z 06803KT 24/19 Q1013 Rio Peloponissos
31/08/2014 LGT9 310430Z 09000KT 22/15 Q1011 Romanos - Patra Peloponissos
31/08/2014 LGA0 310530Z 00000KT 22/19 Q1011 Sagaiika Peloponissos
31/08/2014 LGF7 310530Z 33801KT 21/18 Q1014 Sparti Peloponissos
31/08/2014 LGS2 310530Z 09000KT 17/14 Q1013 Stemnitsa Peloponissos
31/08/2014 LGR1 310530Z 02301KT 19/11 Q1011 Trikala Korinthias Peloponissos
31/08/2014 LG83 310530Z 00000KT 17/15 Q1014 Tripoli Peloponissos
31/08/2014 LGU9 310530Z 20300KT 14/13 Q1013 Vytina Peloponissos
31/08/2014 LG86 310530Z 20301KT 24/21 Q1012 Zaxaro Peloponissos
31/08/2014 LGN2 310530Z 33803KT 24/16 Q1016 Alonissos Sporades
31/08/2014 LGI1 310530Z 31510KT 24/18 Q1013 Skyros Sporades
31/08/2014 LGH9 310530Z 00000KT 23/17 Q1015 Agrinio Sterea Ellada
31/08/2014 LGC7 310530Z 33801KT 24/20 Q1013 Aitoliko Sterea Ellada
31/08/2014 LG29 310530Z 00000KT 20/12 Q1014 Amfiklia Sterea Ellada
31/08/2014 LGH1 310600Z 00000G31104KT 217/120 Q10142 Amfiklia 2 Sterea Ellada
31/08/2014 LGG8 310530Z 06806KT 23/13 Q1016 Antikira Sterea Ellada
31/08/2014 LG97 310610Z 07001KT 18/11 Q1013 Arachova Sterea Ellada
31/08/2014 LGC5 310530Z 06802KT 18/11 Q1015 Arahova Sterea Ellada
31/08/2014 LGH0 310530Z 02305KT 25/16 Q1012 Avlida Sterea Ellada
19/08/2014 LGR2 191130Z 27007KT 29/11 Q1013 Dam of Mornos Sterea Ellada
31/08/2014 LGR3 310530Z 00000KT 16/14 Q1013 Diakopi of Lidoriki Sterea Ellada
31/08/2014 LGW5 310530Z 31500KT 20/14 Q1014 Domokos Sterea Ellada
14/08/2014 LG21 141323Z 24804KT 29/15 Q1014 Evia - Chalkida Sterea Ellada
25/08/2014 LGY4 252130Z 04502KT 28/17 Q1013 Galaxidi Sterea Ellada
31/08/2014 LGC8 310600Z 00000G864KT 235/179 Q10117 Gavalou - Aitol/nia Sterea Ellada
31/08/2014 LGJ7 310530Z 33800KT 21/14 Q1015 Kaparelli Sterea Ellada
31/08/2014 LGC9 310530Z 00000KT 12/11 Q1016 Karpenisi Sterea Ellada
31/08/2014 LGP9 310530Z 29304KT 21/14 Q1012 Kleidi Viotias Sterea Ellada
31/08/2014 LGR4 310530Z 22500KT 19/12 Q1013 Koniakos of Lidoriki Sterea Ellada
31/08/2014 LG5A 310530Z 29307KT 21/14 Q1014 Kopaida Sterea Ellada
25/08/2014 LGV9 250830Z 06804KT 32/11 Q1012 Lamia Sterea Ellada
31/08/2014 LGJ8 310430Z 02300KT 15/12 Q1013 Lefkochori Sterea Ellada
27/08/2014 LGI8 270130Z 00000KT 19/15 Q1012 Livadeia Sterea Ellada
31/08/2014 LGE7 310530Z 29300KT 20/17 Q1012 Makrakomi Sterea Ellada
31/08/2014 LGA6 310530Z 00000KT 11/10 Q1013 Mavrolithari - Vardousia Sterea Ellada
31/08/2014 LGK8 310530Z 09002KT 18/14 Q1012 Myriki Sterea Ellada
31/08/2014 LGG4 310530Z 06801KT 17/11 Q1012 Orini Nafpaktia Sterea Ellada
01/08/2014 LGA4 010700Z 09009KT -SN 02/M02 Q1009 Parnassos Sterea Ellada
27/08/2014 LGF9 271430Z 00000KT 03/02 Q1011 Parnassos1950 Sterea Ellada
31/08/2014 LGL0 310530Z 15800KT 15/12 Q1015 Polydroso Sterea Ellada
07/08/2014 LGR7 071230Z 04508KT 11/09 Q1025 Prasino - Viotia Sterea Ellada
31/08/2014 LG69 310530Z 31503KT 22/13 Q1013 Tanagra Sterea Ellada
31/08/2014 LGO6 310530Z 29304KT 23/18 Q1014 Theologos Sterea Ellada
31/08/2014 LG15 310613Z 09200KT 27/02 Q1014 Kamara Thes/niki Thes/niki
13/08/2014 LGA5 132130Z 24800KT 17/16 Q1011 Lagadas Thes/niki
24/08/2014 LG11 240730Z 12901KT 10/06 Q1006 West Thes/niki Thes/niki
31/08/2014 LGV5 310230Z 00000KT 17/16 Q1012 Tsamantas Thesprotia
28/08/2014 LGL4 281230Z 15803KT 30/10 Q1009 Gardiki Thessalia
30/08/2014 LGW3 301630Z 11300KT 26/14 Q1012 Kalabaka Thessalia
31/08/2014 LG2A 310530Z 24802KT 19/17 Q1015 Karditsa Thessalia
31/08/2014 LGL6 310530Z 00000KT 21/16 Q1014 Larissa Thessalia
31/08/2014 LG41 310550Z 045864G1728KT 226/164 Q10128 Larissa Thessalia
31/08/2014 LGU3 302300Z 00000G864KT 217/164 Q10135 Larissa Thessalia
31/08/2014 LGS8 310530Z 00000KT 19/14 Q1014 Larissa - Agia Thessalia
28/08/2014 LGL7 282130Z 24812KT 16/05 Q1014 Limni Plastira Thessalia
26/08/2014 LGU4 260700Z 29304KT 04/M07 Q1013 Olympos Thessalia
31/08/2014 LG7A 310605Z 00000KT 231/133 Q10137 Pedio Areos Volou Thessalia
29/08/2014 LGE2 291130Z 09003KT 22/15 Q1013 Pertouli Thessalia
31/08/2014 LGY2 310530Z 04501KT 20/11 Q1014 Portaria - Pelio Thessalia
31/08/2014 LG80 310230Z 04510KT 24/19 Q1016 Skopelos - Sporades Thessalia
31/08/2014 LG24 310530Z 00005KT 25/20 Q1014 Sporades - Skiathos Thessalia
31/08/2014 LG57 310530Z 33801KT 19/15 Q1014 Trikala Thessalia
31/08/2014 LG51 310530Z 02300KT 22/16 Q1014 Volos Thessalia
31/08/2014 LGG3 310530Z 09001KT 21/16 Q1016 Zagora EAA Thessalia
31/08/2014 LGD8 310530Z 00004KT 22/16 Q1015 Alexandroupolis Thraki
15/08/2014 LGM9 151330Z 22505KT 28/19 Q1005 Imeros Thraki
31/08/2014 LG35 310610Z 32809KT 22/15 Q1014 Komotini Thraki
31/08/2014 LGL2 310530Z 33803KT 20/15 Q1016 Metaxades - Evros Thraki
31/08/2014 LG31 310530Z 00004KT 19/13 Q1014 Orestiada Thraki
31/08/2014 LGC1 310530Z 02310G26KT 23/17 Q1014 Samothraki Thraki
31/08/2014 LGC6 310530Z 04503KT 23/13 Q1015 Xanthi Thraki
www.meteorologia.gr